Briefing drone pour Thiers

Rechercher une autre localisation

Conditions de vol :


Nous sommes le : Mardi 16 août 2022
Il est 07:19 UTC (09:19 LT)

Lever de soleil : 04:20 UTC (06:20 LT)
Coucher de soleil : 19:19 UTC (21:19 LT)

Météo

L'essentiel des conditions de vol

VIGILANCE MÉTÉO FRANCE - Puy-de-Dôme (63)
Vigilance Jaune : Orages
CARTES DES FRONTS
METAR de LFLV
LFLV 160700Z AUTO 17005KT CAVOK 19/14 Q1009

Date d'émission: 16/08/2022
Heure d'émission: 07:00 UTC
Vent: 170° pour 5 KT (9 km/h)
Visibilité horizontale: > 10 km
Plafond : Plafond et visibilité OK (CAVOK)
Température: 19 °C
Point de rosée: 14 °C
Humidité: 73%
Pression (QNH): 1009 hPa
Prévision 24h pour Vichy (20 km)
Vent : 163° pour 1 KT (5 km/h)
Temperature Maxi: 15 °C
Temperature Min: 15 °C
Humidité : 98%
Condition : Légère pluie



Warning: count(): Parameter must be an array or an object that implements Countable in /homepages/6/d509196549/htdocs/droneoxygene/briefing.php on line 743
WEBCAM POUR THIERS

Réglementation

Voler en sécurité

CARTES AERONAUTIQUE 1/500.000
CARTE AZBA (Reseau basse altitude)
CARTES VAC (LFLV)
SUP AIP




Chargement des AIP...
NOTAM (THIERS + Terrain à proximité / FIR )




Chargement des NOTAMS...
CONTACT PREFECTURE 63


Avertissement : Les données mises à disposition sont indicatives. Oxygène Drone ne pourra être tenu responsable de dégâts causés aux biens et aux personnes.